Latest Weather Observations for Pallamana

IDS60901

Issued at 8:11 pm CDT Tuesday 26 January 2021 (issued every 10 minutes, with the page automatically refreshed every 10 minutes)

About weather observations | Map of Adelaide area stations | Latest observations for Adelaide area | Other Formats
Station Details ID: 024584 Name: PALLAMANA AERODROME Lat: -35.06 Lon: 139.23 Height: 45.0 m
Data from the previous 72 hours. | See also: Recent months at Pallamana
Date/Time
CDT
Temp
°C
App
Temp
°C
Dew
Point
°C
Rel
Hum
%
Delta-T
°C
Wind Press
QNH
hPa
Press
MSL
hPa
Rain since
9am
mm
Dir  Spd
km/h
Gust
km/h
Spd
kts
Gust
kts
26/08:00pm 17.9 13.2 12.1 69 3.2 SSW 28 35 15 19 1009.7 1009.6 0.0
26/07:30pm 19.0 14.1 11.3 61 4.2 SSW 28 35 15 19 1009.3 1009.2 0.0
26/07:00pm 19.8 14.8 11.0 57 4.8 SSW 28 39 15 21 1008.7 1008.6 0.0
26/06:30pm 20.1 15.7 11.6 58 4.7 SSW 26 32 14 17 1008.3 1008.2 0.0
26/06:00pm 20.9 16.5 11.8 56 5.1 S 26 33 14 18 1008.0 1007.9 0.0
26/05:30pm 20.7 16.3 11.6 56 5.1 S 26 39 14 21 1008.0 1007.9 0.0
26/05:00pm 22.1 18.7 12.4 54 5.5 SSW 22 33 12 18 1008.0 1007.9 0.0
26/04:30pm 21.1 17.5 12.0 56 5.1 SSW 22 30 12 16 1008.0 1007.9 0.0
26/04:00pm 20.9 17.2 11.5 55 5.2 SSW 22 30 12 16 1008.1 1008.0 0.0
26/03:30pm 21.4 18.2 13.1 59 4.8 SSW 22 30 12 16 1008.1 1008.0 0.0
26/03:00pm 20.2 16.9 13.9 67 3.6 S 24 33 13 18 1008.0 1007.9 0.0
26/02:30pm 19.5 16.2 13.9 70 3.2 S 24 33 13 18 1007.9 1007.8 0.0
26/02:00pm 19.9 16.4 14.5 71 3.1 S 26 35 14 19 1007.8 1007.7 0.0
26/01:30pm 20.6 17.7 14.0 66 3.8 SSW 22 32 12 17 1007.8 1007.7 0.0
26/01:00pm 20.2 17.1 14.6 70 3.3 SSW 24 32 13 17 1007.8 1007.7 0.0
26/12:30pm 19.7 16.1 14.3 71 3.1 SSW 26 33 14 18 1007.8 1007.7 0.0
26/12:00pm 18.9 16.0 15.0 78 2.3 S 24 32 13 17 1007.5 1007.4 0.0
26/11:30am 18.2 16.3 15.8 86 1.4 SSW 20 32 11 17 1007.6 1007.5 0.0
26/11:00am 18.2 15.9 15.6 85 1.5 SSW 22 30 12 16 1007.6 1007.5 0.0
26/10:30am 18.5 15.9 15.9 85 1.5 SSW 24 32 13 17 1007.3 1007.2 0.0
26/10:00am 18.7 17.3 16.5 87 1.3 S 19 28 10 15 1007.1 1007.0 0.0
26/09:30am 18.0 17.0 16.5 91 0.9 SSW 17 24 9 13 1006.7 1006.5 0.0
26/09:00am 17.6 16.9 16.5 93 0.7 S 15 20 8 11 1006.5 1006.3 17.0
26/08:30am 17.5 16.2 16.7 95 0.5 SSW 19 24 10 13 1006.2 1006.0 17.0
26/08:00am 17.0 15.5 16.7 98 0.2 SSW 20 28 11 15 1006.0 1005.8 17.0
26/07:30am 16.9 15.9 16.6 98 0.2 SSW 17 20 9 11 1005.5 1005.3 17.0
26/07:00am 16.8 15.4 16.6 99 0.1 SSW 19 26 10 14 1004.9 1004.7 17.0
26/06:44am 16.7 14.8 16.7 100 0.0 SSW 22 32 12 17 1004.7 1004.5 17.0
26/06:43am 16.8 14.9 16.8 100 0.0 SSW 22 32 12 17 1004.7 1004.5 17.0
26/06:30am 16.8 14.6 16.8 100 0.0 SSW 24 30 13 16 1004.4 1004.2 17.0
26/06:25am 16.9 15.1 16.9 100 0.0 SSW 22 30 12 16 1004.3 1004.1 17.0
26/06:18am 17.0 15.2 17.0 100 0.0 SSW 22 28 12 15 1004.3 1004.1 17.0
26/06:08am 17.1 15.4 17.1 100 0.0 SSW 22 30 12 16 1004.2 1004.0 17.0
26/06:00am 17.2 15.1 17.2 100 0.0 SSW 24 32 13 17 1004.1 1003.9 16.8
26/05:58am 17.2 15.1 17.2 100 0.0 SSW 24 32 13 17 1004.0 1003.8 16.8
26/05:30am 17.4 15.4 17.4 100 0.0 SSW 24 32 13 17 1003.6 1003.4 16.8
26/05:00am 17.7 15.8 17.7 100 0.0 SSW 24 32 13 17 1003.1 1002.9 16.8
26/04:30am 18.1 17.3 18.1 100 0.0 SSW 19 24 10 13 1002.7 1002.5 16.6
26/04:29am 18.0 17.2 18.0 100 0.0 SSW 19 24 10 13 1002.7 1002.5 16.6
26/04:28am 18.1 17.3 18.1 100 0.0 SSW 19 24 10 13 1002.7 1002.5 16.6
26/04:00am 18.2 17.3 18.2 100 0.0 SSW 20 28 11 15 1002.5 1002.3 16.6
26/03:30am 18.6 17.1 18.6 100 0.0 SSW 24 32 13 17 1002.5 1002.3 16.6
26/03:16am 18.9 18.5 18.9 100 0.0 SW 19 30 10 16 1002.5 1002.3 16.6
26/03:00am 19.4 20.0 19.4 100 0.0 SW 15 20 8 11 1002.5 1002.3 16.4
26/02:59am 19.4 19.9 19.2 99 0.1 SW 15 20 8 11 1002.5 1002.3 16.4
26/02:30am 19.3 19.7 19.0 98 0.2 SW 15 17 8 9 1002.6 1002.4 16.4
26/02:00am 19.6 19.7 19.1 97 0.3 SW 17 20 9 11 1002.6 1002.4 16.4
26/01:30am 19.5 19.5 19.0 97 0.3 SW 17 20 9 11 1002.5 1002.3 16.4
26/01:00am 19.5 19.7 19.3 99 0.1 WSW 17 20 9 11 1002.5 1002.3 16.4
26/12:30am 19.3 20.6 19.3 100 0.0 WSW 11 13 6 7 1002.5 1002.3 16.4
26/12:00am 19.3 20.1 19.0 98 0.2 SW 13 17 7 9 1002.5 1002.3 16.4
 
Date/Time
CDT
Temp
°C
App
Temp
°C
Dew
Point
°C
Rel
Hum
%
Delta-T
°C
Wind Press
QNH
hPa
Press
MSL
hPa
Rain since
9am
mm
Dir  Spd
km/h
Gust
km/h
Spd
kts
Gust
kts
25/11:30pm 19.5 20.4 19.2 98 0.2 SW 13 17 7 9 1002.4 1002.2 16.4
25/11:20pm 19.6 20.0 19.1 97 0.3 WSW 15 17 8 9 1002.5 1002.3 16.4
25/11:00pm 19.5 20.4 19.2 98 0.2 WSW 13 17 7 9 1002.9 1002.7 16.4
25/10:30pm 19.7 19.8 19.2 97 0.3 SW 17 20 9 11 1002.4 1002.2 16.4
25/10:00pm 19.8 19.3 19.1 96 0.4 WSW 20 24 11 13 1002.0 1001.8 16.4
25/09:30pm 19.8 18.9 19.1 96 0.4 SW 22 30 12 16 1001.4 1001.2 16.4
25/09:00pm 20.0 19.8 19.7 98 0.2 SW 20 26 11 14 1000.9 1000.7 16.4
25/08:30pm 20.1 19.9 19.8 98 0.2 SW 20 26 11 14 1000.4 1000.2 16.4
25/08:00pm 20.3 19.5 20.0 98 0.2 SW 24 32 13 17 999.7 999.5 16.4
25/07:30pm 20.4 20.7 19.7 96 0.4 SW 17 24 9 13 999.5 999.3 16.4
25/07:09pm 20.5 20.7 20.2 98 0.2 SW 19 24 10 13 999.3 999.1 16.4
25/07:00pm 20.4 20.9 20.1 98 0.2 SW 17 24 9 13 999.3 999.1 16.4
25/06:30pm 19.9 21.7 19.6 98 0.2 SSW 9 13 5 7 999.2 999.0 13.2
25/06:29pm 19.9 21.6 19.4 97 0.3 SSW 9 13 5 7 999.2 999.0 13.2
25/06:26pm 20.0 21.9 19.7 98 0.2 SSW 9 13 5 7 999.2 999.0 13.0
25/06:00pm 19.9 22.1 19.7 99 0.1 S 7 11 4 6 999.2 999.0 12.4
25/05:50pm 19.8 22.1 19.8 100 0.0 SSE 7 11 4 6 999.1 998.9 12.2
25/05:30pm 19.7 21.6 19.7 100 0.0 S 9 11 5 6 999.3 999.1 11.2
25/05:00pm 19.7 20.0 19.7 100 0.0 SW 17 20 9 11 1000.2 1000.0 8.0
25/04:37pm 19.9 19.8 19.6 98 0.2 SW 19 22 10 12 1000.2 1000.0 3.8
25/04:30pm 20.2 20.1 19.9 98 0.2 SW 20 28 11 15 1000.0 999.8 3.2
25/04:00pm 20.4 20.0 20.1 98 0.2 SW 22 28 12 15 1000.3 1000.1 2.8
25/03:51pm 20.0 18.5 19.5 97 0.3 SW 26 33 14 18 1000.1 999.9 2.6
25/03:36pm 20.3 18.8 19.5 95 0.5 SW 26 35 14 19 1000.1 999.9 1.4
25/03:30pm 20.5 18.6 19.3 93 0.8 WSW 28 35 15 19 1000.2 1000.0 0.8
25/03:00pm 22.9 19.8 18.9 78 2.5 SW 33 43 18 23 999.0 998.8 0.0
25/02:30pm 25.6 24.4 18.3 64 4.7 SSW 22 30 12 16 998.5 998.3 0.0
25/02:00pm 29.8 25.9 14.4 39 9.3 SW 28 39 15 21 998.6 998.4 0.0
25/01:45pm 31.1 28.8 14.7 37 10.0 S 20 35 11 19 998.4 998.2 0.0
25/01:30pm 32.2 32.0 14.8 35 10.8 SSE 9 15 5 8 998.3 998.1 0.0
25/01:00pm 30.9 30.5 14.1 36 10.2 S 9 13 5 7 999.2 999.0 0.0
25/12:30pm 30.5 31.9 15.4 40 9.4 E 2 11 1 6 999.5 999.3 0.0
25/12:00pm 29.1 29.6 15.6 44 8.4 SE 7 11 4 6 999.7 999.5 0.0
25/11:30am 28.7 29.1 16.3 47 7.7 ESE 9 13 5 7 999.9 999.7 0.0
25/11:00am 28.3 29.0 16.2 47 7.5 ESE 7 11 4 6 1000.3 1000.1 0.0
25/10:30am 27.0 28.2 16.9 54 6.3 S 6 9 3 5 1000.6 1000.4 0.0
25/10:00am 25.3 25.1 16.7 59 5.3 SSE 13 19 7 10 1000.5 1000.3 0.0
25/09:30am 24.5 24.5 17.2 63 4.6 SSE 13 19 7 10 1000.7 1000.5 0.0
25/09:00am 23.1 22.0 17.3 70 3.6 S 19 26 10 14 1000.8 1000.6 0.6
25/08:30am 22.3 21.0 17.2 73 3.2 SW 20 24 11 13 1001.9 1001.7 0.2
25/08:00am 25.5 21.0 13.7 48 7.0 SW 30 39 16 21 1002.1 1001.9 0.0
25/07:30am 29.4 24.1 8.5 27 11.6 WSW 26 35 14 19 1002.3 1002.1 0.0
25/07:00am 27.0 25.6 9.4 33 9.7 N 7 9 4 5 1000.9 1000.7 0.0
25/06:30am 27.4 25.1 10.6 35 9.5 NNE 13 19 7 10 1000.8 1000.6 0.0
25/06:00am 27.0 25.8 11.5 38 8.9 NW 9 11 5 6 1000.6 1000.4 0.0
25/05:30am 26.5 26.0 12.2 41 8.3 S 6 9 3 5 1000.2 1000.0 0.0
25/05:00am 27.9 27.3 12.3 38 9.1 W 7 11 4 6 1000.0 999.8 0.0
25/04:30am 26.3 24.5 9.6 35 9.3 ESE 9 11 5 6 1000.8 1000.6 0.0
25/04:00am 26.5 26.0 8.0 31 9.9 CALM 0 0 0 0 1001.1 1000.9 0.0
25/03:30am 27.1 25.5 8.0 30 10.4 NNE 6 13 3 7 1000.9 1000.7 0.0
25/03:00am 28.6 26.4 7.8 27 11.3 NW 9 13 5 7 1000.7 1000.5 0.0
25/02:30am 29.4 25.5 7.3 25 12.0 W 17 22 9 12 1000.8 1000.6 0.0
25/02:00am 28.6 24.9 7.8 27 11.3 WNW 17 24 9 13 1001.3 1001.1 0.0
25/01:30am 26.8 22.7 7.8 30 10.2 N 19 28 10 15 1002.0 1001.8 0.0
25/01:00am 27.1 25.5 8.0 30 10.3 N 6 9 3 5 1002.4 1002.2 0.0
25/12:30am 26.7 24.3 8.6 32 9.9 NNE 11 19 6 10 1003.1 1002.9 0.0
25/12:00am 27.0 24.8 9.4 33 9.8 WNW 11 13 6 7 1002.9 1002.7 0.0
 
Date/Time
CDT
Temp
°C
App
Temp
°C
Dew
Point
°C
Rel
Hum
%
Delta-T
°C
Wind Press
QNH
hPa
Press
MSL
hPa
Rain since
9am
mm
Dir  Spd
km/h
Gust
km/h
Spd
kts
Gust
kts
24/11:30pm 26.6 24.0 9.5 34 9.5 WSW 13 17 7 9 1002.7 1002.5 0.0
24/11:00pm 26.4 24.6 10.9 38 8.8 SW 11 13 6 7 1003.1 1002.9 0.0
24/10:30pm 26.8 25.1 11.3 38 8.9 WSW 11 15 6 8 1003.2 1003.0 0.0
24/10:00pm 26.8 25.1 11.3 38 8.8 SW 11 17 6 9 1003.1 1002.9 0.0
24/09:30pm 27.1 25.1 11.6 38 8.9 SSW 13 19 7 10 1002.8 1002.6 0.0
24/09:00pm 27.5 24.6 11.1 36 9.4 SSW 17 20 9 11 1002.8 1002.6 0.0
24/08:30pm 28.1 25.0 10.3 33 10.1 SSW 17 28 9 15 1002.8 1002.6 0.0
24/08:00pm 28.6 24.0 11.2 34 10.0 S 26 33 14 18 1002.2 1002.0 0.0
24/07:30pm 31.4 27.4 9.0 25 12.6 S 20 32 11 17 1001.6 1001.4 0.0
24/07:18pm 32.6 27.0 8.8 23 13.4 SSW 28 39 15 21 1001.2 1001.0 0.0
24/07:00pm 37.6 33.6 6.6 15 17.3 W 17 30 9 16 1000.8 1000.6 0.0
24/06:30pm 41.3 37.2 2.1 9 20.9 WNW 13 19 7 10 1000.4 1000.2 0.0
24/06:00pm 42.5 37.9 1.3 8 21.8 WNW 15 24 8 13 1000.5 1000.3 0.0
24/05:30pm 42.0 36.6 2.6 9 21.2 W 20 28 11 15 1000.6 1000.4 0.0
24/05:00pm 42.1 36.4 2.7 9 21.2 W 22 35 12 19 1000.9 1000.7 0.0
24/04:30pm 41.3 36.0 2.1 9 20.9 NW 19 26 10 14 1001.3 1001.1 0.0
24/04:00pm 41.5 35.6 3.7 10 20.5 WNW 24 35 13 19 1001.6 1001.4 0.0
24/03:30pm 41.7 36.3 2.4 9 21.1 WNW 20 32 11 17 1001.7 1001.5 0.0
24/03:00pm 42.3 35.9 1.2 8 21.7 WNW 24 33 13 18 1002.0 1001.8 0.0
24/02:30pm 42.7 35.2 1.5 8 21.9 N 30 50 16 27 1002.4 1002.2 0.0
24/02:27pm 42.9 36.2 1.6 8 21.9 N 26 50 14 27 1002.4 1002.2 0.0
24/02:00pm 43.3 36.7 1.9 8 22.1 NNE 26 39 14 21 1002.7 1002.5 0.0
24/01:30pm 42.3 35.2 1.2 8 21.7 NNE 28 35 15 19 1003.5 1003.3 0.0
24/01:00pm 41.9 34.4 0.9 8 21.4 NNE 30 39 16 21 1004.0 1003.8 0.0
24/12:30pm 41.1 33.5 0.3 8 21.1 NNE 30 37 16 20 1004.5 1004.3 0.0
24/12:00pm 38.3 30.6 -0.1 9 19.4 NNE 30 39 16 21 1005.0 1004.8 0.0
24/11:30am 37.5 30.1 -0.7 9 19.0 NNE 28 37 15 20 1005.5 1005.3 0.0
24/11:00am 35.7 28.9 0.7 11 17.6 NNE 26 33 14 18 1005.9 1005.7 0.0
24/10:30am 34.3 28.1 2.0 13 16.5 NNE 24 32 13 17 1006.2 1006.0 0.0
24/10:00am 32.7 26.4 3.6 16 15.0 NNE 26 30 14 16 1006.6 1006.4 0.0
24/09:30am 32.6 26.4 6.0 19 14.3 NNE 28 33 15 18 1006.9 1006.7 0.0
24/09:00am 29.2 24.1 6.0 23 12.3 NNE 22 26 12 14 1007.2 1007.1 0.0
24/08:30am 27.0 22.6 6.4 27 10.8 NNE 19 24 10 13 1007.4 1007.3 0.0
24/08:00am 26.4 22.9 7.4 30 10.1 NNE 15 19 8 10 1007.3 1007.2 0.0
24/07:30am 24.3 21.1 7.0 33 9.0 N 13 17 7 9 1007.3 1007.2 0.0
24/07:00am 23.3 19.8 7.4 36 8.3 N 15 17 8 9 1007.2 1007.1 0.0
24/06:30am 22.1 19.2 6.7 37 7.9 N 11 15 6 8 1007.1 1007.0 0.0
24/06:00am 21.9 19.1 7.0 38 7.7 N 11 13 6 7 1007.0 1006.8 0.0
24/05:30am 23.2 20.3 6.5 34 8.6 N 11 13 6 7 1006.9 1006.7 0.0
24/05:00am 23.2 19.6 6.9 35 8.4 N 15 19 8 10 1006.8 1006.6 0.0
24/04:30am 22.0 19.2 7.0 38 7.7 N 11 15 6 8 1006.8 1006.6 0.0
24/04:00am 20.5 19.5 7.2 42 6.8 N 2 7 1 4 1006.8 1006.6 0.0
24/03:30am 24.4 22.4 7.1 33 9.1 N 7 9 4 5 1007.1 1007.0 0.0
24/03:00am 25.0 21.9 7.2 32 9.4 N 13 19 7 10 1007.3 1007.2 0.0
24/02:30am 21.7 20.1 8.6 43 6.9 NNE 7 11 4 6 1007.4 1007.3 0.0
24/02:00am 20.7 19.2 8.4 45 6.4 NW 6 9 3 5 1007.6 1007.5 0.0
24/01:30am 21.8 20.4 7.2 39 7.5 NW 4 9 2 5 1007.6 1007.5 0.0
24/01:00am 23.8 21.6 9.4 40 7.8 W 11 13 6 7 1007.8 1007.7 0.0
24/12:30am 22.8 21.5 9.2 42 7.3 W 6 9 3 5 1008.2 1008.1 0.0
24/12:00am 24.4 23.4 11.0 43 7.5 WSW 7 13 4 7 1008.6 1008.5 0.0
 
Date/Time
CDT
Temp
°C
App
Temp
°C
Dew
Point
°C
Rel
Hum
%
Delta-T
°C
Wind Press
QNH
hPa
Press
MSL
hPa
Rain since
9am
mm
Dir  Spd
km/h
Gust
km/h
Spd
kts
Gust
kts
23/11:30pm 24.6 21.6 10.5 41 7.9 WSW 17 19 9 10 1008.6 1008.5 0.0
23/11:00pm 25.0 22.0 10.8 41 8.0 SW 17 20 9 11 1008.8 1008.7 0.0
23/10:30pm 25.8 22.7 11.6 41 8.1 WSW 19 20 10 11 1009.0 1008.9 0.0
23/10:00pm 25.6 23.3 11.7 42 7.9 WSW 15 19 8 10 1008.9 1008.8 0.0
23/09:30pm 26.6 24.1 12.3 41 8.3 WSW 17 22 9 12 1008.8 1008.7 0.0
23/09:00pm 28.0 25.4 12.0 37 9.3 SW 17 22 9 12 1008.4 1008.3 0.0
23/08:30pm 29.7 26.1 11.7 33 10.5 SW 22 28 12 15 1008.1 1008.0 0.0

Latest Capital City Observations: Canberra | Sydney | Melbourne | Brisbane | Adelaide | Perth | Hobart | Darwin

Other formats

Comma delimited format used in spreadsheet applications
http://www.bom.gov.au/fwo/IDS60901/IDS60901.95818.axf

JavaScript Object Notation format (JSON) in row-major order
http://www.bom.gov.au/fwo/IDS60901/IDS60901.95818.json

Data quality

Most of these data are generated automatically and are frequently updated. Quality checks on data are not normally performed. It is possible for incorrect values to appear. Refer to information at About Latest Weather Observations and please check the disclaimer before using these data.